sensor_id;sensor_type;location;lat;lon;timestamp;pressure;altitude;pressure_sealevel;temperature;humidity
45285;BME280;31026;43.780;25.948;2023-04-30T00:00:36;100656.88;;;18.29;65.31
45285;BME280;31026;43.780;25.948;2023-04-30T00:03:04;100643.06;;;18.24;64.62
45285;BME280;31026;43.780;25.948;2023-04-30T00:05:32;100651.81;;;18.26;65.71
45285;BME280;31026;43.780;25.948;2023-04-30T00:08:01;100654.19;;;18.29;64.63
45285;BME280;31026;43.780;25.948;2023-04-30T00:10:29;100653.22;;;18.31;65.68
45285;BME280;31026;43.780;25.948;2023-04-30T00:12:58;100651.81;;;18.26;65.27
45285;BME280;31026;43.780;25.948;2023-04-30T00:15:26;100658.53;;;18.21;65.74
45285;BME280;31026;43.780;25.948;2023-04-30T00:17:57;100659.81;;;18.26;64.43
45285;BME280;31026;43.780;25.948;2023-04-30T00:20:26;100646.25;;;18.18;65.76
45285;BME280;31026;43.780;25.948;2023-04-30T00:22:54;100658.53;;;18.21;64.42
45285;BME280;31026;43.780;25.948;2023-04-30T00:25:22;100651.22;;;18.23;65.07
45285;BME280;31026;43.780;25.948;2023-04-30T00:27:51;100655.25;;;18.17;66.00
45285;BME280;31026;43.780;25.948;2023-04-30T00:30:23;100644.72;;;18.25;63.92
45285;BME280;31026;43.780;25.948;2023-04-30T00:32:51;100651.16;;;18.13;65.33
45285;BME280;31026;43.780;25.948;2023-04-30T00:35:22;100644.28;;;18.20;65.41
45285;BME280;31026;43.780;25.948;2023-04-30T00:37:50;100641.59;;;18.20;65.39
45285;BME280;31026;43.780;25.948;2023-04-30T00:40:19;100639.38;;;18.25;65.74
45285;BME280;31026;43.780;25.948;2023-04-30T00:42:47;100647.53;;;18.24;64.64
45285;BME280;31026;43.780;25.948;2023-04-30T00:45:16;100645.28;;;18.19;65.28
45285;BME280;31026;43.780;25.948;2023-04-30T00:47:46;100642.59;;;18.19;64.44
45285;BME280;31026;43.780;25.948;2023-04-30T00:50:14;100647.09;;;18.19;65.41
45285;BME280;31026;43.780;25.948;2023-04-30T00:52:45;100638.50;;;18.15;64.52
45285;BME280;31026;43.780;25.948;2023-04-30T00:55:14;100636.41;;;18.19;65.11
45285;BME280;31026;43.780;25.948;2023-04-30T00:57:42;100642.47;;;18.21;63.73
45285;BME280;31026;43.780;25.948;2023-04-30T01:00:11;100638.09;;;18.20;64.30
45285;BME280;31026;43.780;25.948;2023-04-30T01:02:40;100635.16;;;18.23;64.27
45285;BME280;31026;43.780;25.948;2023-04-30T01:05:08;100636.00;;;18.23;64.91
45285;BME280;31026;43.780;25.948;2023-04-30T01:07:37;100648.78;;;18.20;64.10
45285;BME280;31026;43.780;25.948;2023-04-30T01:10:11;100630.47;;;18.15;64.26
45285;BME280;31026;43.780;25.948;2023-04-30T01:12:42;100630.19;;;18.18;64.53
45285;BME280;31026;43.780;25.948;2023-04-30T01:15:15;100624.56;;;18.21;63.57
45285;BME280;31026;43.780;25.948;2023-04-30T01:17:47;100630.88;;;18.20;63.95
45285;BME280;31026;43.780;25.948;2023-04-30T01:20:20;100646.81;;;18.22;65.36
45285;BME280;31026;43.780;25.948;2023-04-30T01:22:50;100635.41;;;18.20;64.36
45285;BME280;31026;43.780;25.948;2023-04-30T01:25:32;100623.84;;;18.19;64.63
45285;BME280;31026;43.780;25.948;2023-04-30T01:28:06;100636.66;;;18.16;64.73
45285;BME280;31026;43.780;25.948;2023-04-30T01:30:36;100640.88;;;18.18;63.94
45285;BME280;31026;43.780;25.948;2023-04-30T01:33:05;100622.44;;;18.15;63.61
45285;BME280;31026;43.780;25.948;2023-04-30T01:35:39;100629.94;;;18.21;64.84
45285;BME280;31026;43.780;25.948;2023-04-30T01:38:14;100624.31;;;18.24;63.75
45285;BME280;31026;43.780;25.948;2023-04-30T01:40:49;100627.00;;;18.34;63.51
45285;BME280;31026;43.780;25.948;2023-04-30T01:43:22;100619.13;;;18.33;63.51
45285;BME280;31026;43.780;25.948;2023-04-30T01:45:56;100616.19;;;18.76;62.59
45285;BME280;31026;43.780;25.948;2023-04-30T01:48:30;100606.63;;;19.52;60.91
45285;BME280;31026;43.780;25.948;2023-04-30T01:51:04;100599.78;;;20.06;59.49
45285;BME280;31026;43.780;25.948;2023-04-30T01:53:37;100597.63;;;20.47;58.17
45285;BME280;31026;43.780;25.948;2023-04-30T01:56:08;100601.66;;;20.33;58.49
45285;BME280;31026;43.780;25.948;2023-04-30T01:58:40;100597.53;;;20.39;58.63
45285;BME280;31026;43.780;25.948;2023-04-30T02:01:22;100609.38;;;20.46;58.23
45285;BME280;31026;43.780;25.948;2023-04-30T02:03:52;100589.03;;;20.43;58.48
45285;BME280;31026;43.780;25.948;2023-04-30T02:06:20;100594.78;;;20.49;58.31
45285;BME280;31026;43.780;25.948;2023-04-30T02:08:52;100602.44;;;20.53;58.39
45285;BME280;31026;43.780;25.948;2023-04-30T02:11:21;100606.75;;;20.64;58.05
45285;BME280;31026;43.780;25.948;2023-04-30T02:13:52;100611.31;;;20.63;58.10
45285;BME280;31026;43.780;25.948;2023-04-30T02:16:21;100614.50;;;20.67;58.18
45285;BME280;31026;43.780;25.948;2023-04-30T02:18:49;100617.38;;;20.65;57.97
45285;BME280;31026;43.780;25.948;2023-04-30T02:21:17;100604.91;;;20.64;58.43
45285;BME280;31026;43.780;25.948;2023-04-30T02:23:46;100595.00;;;20.65;58.34
45285;BME280;31026;43.780;25.948;2023-04-30T02:26:14;100605.75;;;20.65;58.33
45285;BME280;31026;43.780;25.948;2023-04-30T02:28:42;100608.56;;;20.73;58.30
45285;BME280;31026;43.780;25.948;2023-04-30T02:31:13;100609.94;;;20.77;58.03
45285;BME280;31026;43.780;25.948;2023-04-30T02:33:42;100606.72;;;20.74;57.98
45285;BME280;31026;43.780;25.948;2023-04-30T02:36:10;100622.44;;;20.69;58.17
45285;BME280;31026;43.780;25.948;2023-04-30T02:38:38;100619.88;;;20.67;58.16
45285;BME280;31026;43.780;25.948;2023-04-30T02:41:07;100616.56;;;20.55;58.61
45285;BME280;31026;43.780;25.948;2023-04-30T02:43:35;100620.66;;;20.59;58.47
45285;BME280;31026;43.780;25.948;2023-04-30T02:46:03;100616.56;;;20.55;58.39
45285;BME280;31026;43.780;25.948;2023-04-30T02:48:34;100608.19;;;20.58;58.43
45285;BME280;31026;43.780;25.948;2023-04-30T02:51:02;100620.66;;;20.59;58.31
45285;BME280;31026;43.780;25.948;2023-04-30T02:53:31;100626.13;;;20.58;58.50
45285;BME280;31026;43.780;25.948;2023-04-30T02:55:59;100621.34;;;20.61;58.43
45285;BME280;31026;43.780;25.948;2023-04-30T02:58:28;100637.47;;;20.61;58.40
45285;BME280;31026;43.780;25.948;2023-04-30T03:00:56;100619.50;;;20.62;58.04
45285;BME280;31026;43.780;25.948;2023-04-30T03:03:24;100622.75;;;20.65;58.18
45285;BME280;31026;43.780;25.948;2023-04-30T03:05:55;100626.56;;;20.63;58.47
45285;BME280;31026;43.780;25.948;2023-04-30T03:08:24;100617.38;;;20.65;58.29
45285;BME280;31026;43.780;25.948;2023-04-30T03:10:52;100631.34;;;20.69;58.27
45285;BME280;31026;43.780;25.948;2023-04-30T03:13:20;100629.38;;;20.71;58.03
45285;BME280;31026;43.780;25.948;2023-04-30T03:15:55;100626.69;;;20.71;57.93
45285;BME280;31026;43.780;25.948;2023-04-30T03:18:23;100635.72;;;20.70;58.04
45285;BME280;31026;43.780;25.948;2023-04-30T03:20:52;100641.56;;;20.65;58.18
45285;BME280;31026;43.780;25.948;2023-04-30T03:23:22;100627.09;;;20.66;58.31
45285;BME280;31026;43.780;25.948;2023-04-30T03:25:51;100637.84;;;20.66;58.24
45285;BME280;31026;43.780;25.948;2023-04-30T03:28:19;100627.81;;;20.69;58.22
45285;BME280;31026;43.780;25.948;2023-04-30T03:30:48;100635.47;;;20.63;58.33
45285;BME280;31026;43.780;25.948;2023-04-30T03:33:16;100641.56;;;20.65;58.09
45285;BME280;31026;43.780;25.948;2023-04-30T03:35:44;100644.78;;;20.69;58.25
45285;BME280;31026;43.780;25.948;2023-04-30T03:38:14;100648.19;;;20.71;58.12
45285;BME280;31026;43.780;25.948;2023-04-30T03:40:45;100658.06;;;20.71;58.27
45285;BME280;31026;43.780;25.948;2023-04-30T03:43:13;100654.06;;;20.75;57.97
45285;BME280;31026;43.780;25.948;2023-04-30T03:45:41;100667.91;;;20.80;58.01
45285;BME280;31026;43.780;25.948;2023-04-30T03:48:09;100653.78;;;20.78;58.05
45285;BME280;31026;43.780;25.948;2023-04-30T03:50:38;100652.63;;;20.80;57.93
45285;BME280;31026;43.780;25.948;2023-04-30T03:53:06;100654.47;;;20.80;57.82
45285;BME280;31026;43.780;25.948;2023-04-30T03:55:34;100656.84;;;20.83;57.84
45285;BME280;31026;43.780;25.948;2023-04-30T03:58:05;100653.47;;;20.81;57.83
45285;BME280;31026;43.780;25.948;2023-04-30T04:00:34;100674.19;;;20.71;58.18
45285;BME280;31026;43.780;25.948;2023-04-30T04:03:02;100661.19;;;20.29;59.11
45285;BME280;31026;43.780;25.948;2023-04-30T04:05:31;100671.56;;;20.14;59.43
45285;BME280;31026;43.780;25.948;2023-04-30T04:07:59;100669.03;;;19.93;60.30
45285;BME280;31026;43.780;25.948;2023-04-30T04:10:28;100655.91;;;19.70;62.13
45285;BME280;31026;43.780;25.948;2023-04-30T04:12:56;100670.31;;;19.50;62.95
45285;BME280;31026;43.780;25.948;2023-04-30T04:15:27;100677.78;;;19.36;62.48
45285;BME280;31026;43.780;25.948;2023-04-30T04:17:55;100664.09;;;19.30;63.38
45285;BME280;31026;43.780;25.948;2023-04-30T04:20:23;100681.59;;;19.24;62.95
45285;BME280;31026;43.780;25.948;2023-04-30T04:22:54;100668.03;;;19.16;61.86
45285;BME280;31026;43.780;25.948;2023-04-30T04:25:22;100644.91;;;19.54;61.28
45285;BME280;31026;43.780;25.948;2023-04-30T04:27:51;100660.03;;;19.84;60.16
45285;BME280;31026;43.780;25.948;2023-04-30T04:30:19;100654.34;;;19.87;60.29
45285;BME280;31026;43.780;25.948;2023-04-30T04:32:50;100671.59;;;19.94;60.54
45285;BME280;31026;43.780;25.948;2023-04-30T04:35:19;100666.91;;;19.67;61.32
45285;BME280;31026;43.780;25.948;2023-04-30T04:37:47;100669.31;;;19.41;63.06
45285;BME280;31026;43.780;25.948;2023-04-30T04:40:16;100666.75;;;19.30;61.51
45285;BME280;31026;43.780;25.948;2023-04-30T04:42:44;100646.88;;;19.52;60.88
45285;BME280;31026;43.780;25.948;2023-04-30T04:45:12;100661.56;;;19.96;59.68
45285;BME280;31026;43.780;25.948;2023-04-30T04:47:41;100662.25;;;19.98;59.75
45285;BME280;31026;43.780;25.948;2023-04-30T04:50:12;100649.91;;;20.15;59.78
45285;BME280;31026;43.780;25.948;2023-04-30T04:52:40;100657.16;;;19.85;60.78
45285;BME280;31026;43.780;25.948;2023-04-30T04:55:08;100668.91;;;19.55;62.25
45285;BME280;31026;43.780;25.948;2023-04-30T04:57:37;100660.44;;;19.60;60.41
45285;BME280;31026;43.780;25.948;2023-04-30T05:00:07;100660.25;;;20.10;59.46
45285;BME280;31026;43.780;25.948;2023-04-30T05:02:36;100655.91;;;20.37;58.55
45285;BME280;31026;43.780;25.948;2023-04-30T05:05:05;100664.59;;;20.21;58.95
45285;BME280;31026;43.780;25.948;2023-04-30T05:07:37;100668.69;;;20.15;58.99
45285;BME280;31026;43.780;25.948;2023-04-30T05:10:06;100662.81;;;20.02;59.39
45285;BME280;31026;43.780;25.948;2023-04-30T05:12:34;100680.34;;;19.86;59.78
45285;BME280;31026;43.780;25.948;2023-04-30T05:15:03;100669.63;;;19.77;59.94
45285;BME280;31026;43.780;25.948;2023-04-30T05:17:31;100664.13;;;19.88;59.83
45285;BME280;31026;43.780;25.948;2023-04-30T05:20:00;100656.84;;;20.18;59.15
45285;BME280;31026;43.780;25.948;2023-04-30T05:22:28;100658.00;;;20.05;59.30
45285;BME280;31026;43.780;25.948;2023-04-30T05:24:59;100666.47;;;20.01;59.67
45285;BME280;31026;43.780;25.948;2023-04-30T05:27:27;100666.66;;;19.90;60.01
45285;BME280;31026;43.780;25.948;2023-04-30T05:29:55;100667.78;;;19.87;60.21
45285;BME280;31026;43.780;25.948;2023-04-30T05:32:24;100672.97;;;19.69;60.41
45285;BME280;31026;43.780;25.948;2023-04-30T05:34:52;100675.97;;;19.66;60.43
45285;BME280;31026;43.780;25.948;2023-04-30T05:37:20;100682.16;;;20.05;59.77
45285;BME280;31026;43.780;25.948;2023-04-30T05:39:49;100667.59;;;20.08;59.44
45285;BME280;31026;43.780;25.948;2023-04-30T05:42:20;100668.47;;;19.99;59.63
45285;BME280;31026;43.780;25.948;2023-04-30T05:44:48;100660.59;;;19.88;59.84
45285;BME280;31026;43.780;25.948;2023-04-30T05:47:17;100669.88;;;19.83;61.15
45285;BME280;31026;43.780;25.948;2023-04-30T05:49:45;100665.66;;;19.71;60.38
45285;BME280;31026;43.780;25.948;2023-04-30T05:52:13;100662.81;;;19.63;60.68
45285;BME280;31026;43.780;25.948;2023-04-30T05:54:42;100662.97;;;19.91;60.25
45285;BME280;31026;43.780;25.948;2023-04-30T05:57:12;100664.91;;;20.18;59.31
45285;BME280;31026;43.780;25.948;2023-04-30T05:59:43;100645.31;;;19.98;59.75
45285;BME280;31026;43.780;25.948;2023-04-30T06:02:11;100665.97;;;19.88;59.91
45285;BME280;31026;43.780;25.948;2023-04-30T06:04:40;100669.88;;;19.83;60.23
45285;BME280;31026;43.780;25.948;2023-04-30T06:07:08;100675.28;;;19.74;60.74
45285;BME280;31026;43.780;25.948;2023-04-30T06:09:37;100654.06;;;19.71;60.61
45285;BME280;31026;43.780;25.948;2023-04-30T06:12:05;100663.97;;;19.70;60.61
45285;BME280;31026;43.780;25.948;2023-04-30T06:14:34;100656.31;;;20.04;59.85
45285;BME280;31026;43.780;25.948;2023-04-30T06:17:05;100655.00;;;20.09;60.35
45285;BME280;31026;43.780;25.948;2023-04-30T06:19:33;100659.13;;;20.03;60.78
45285;BME280;31026;43.780;25.948;2023-04-30T06:22:02;100657.59;;;19.91;61.39
45285;BME280;31026;43.780;25.948;2023-04-30T06:24:31;100661.00;;;19.93;61.49
45285;BME280;31026;43.780;25.948;2023-04-30T06:26:59;100652.66;;;19.96;61.48
45285;BME280;31026;43.780;25.948;2023-04-30T06:29:27;100669.88;;;19.83;62.02
45285;BME280;31026;43.780;25.948;2023-04-30T06:31:56;100675.44;;;19.82;61.87
45285;BME280;31026;43.780;25.948;2023-04-30T06:34:27;100667.06;;;19.75;62.55
45285;BME280;31026;43.780;25.948;2023-04-30T06:36:55;100666.78;;;19.68;62.36
45285;BME280;31026;43.780;25.948;2023-04-30T06:39:23;100654.66;;;19.94;61.57
45285;BME280;31026;43.780;25.948;2023-04-30T06:41:51;100667.25;;;20.31;60.68
45285;BME280;31026;43.780;25.948;2023-04-30T06:44:20;100661.06;;;20.20;60.87
45285;BME280;31026;43.780;25.948;2023-04-30T06:46:48;100682.81;;;20.17;61.18
45285;BME280;31026;43.780;25.948;2023-04-30T06:49:16;100677.06;;;20.02;61.28
45285;BME280;31026;43.780;25.948;2023-04-30T06:51:47;100673.00;;;19.98;61.41
45285;BME280;31026;43.780;25.948;2023-04-30T06:54:15;100675.25;;;19.93;61.57
45285;BME280;31026;43.780;25.948;2023-04-30T06:56:46;100660.00;;;19.94;61.44
45285;BME280;31026;43.780;25.948;2023-04-30T06:59:15;100681.19;;;19.87;61.76
45285;BME280;31026;43.780;25.948;2023-04-30T07:01:43;100675.81;;;19.87;61.75
45285;BME280;31026;43.780;25.948;2023-04-30T07:04:11;100683.47;;;19.82;62.00
45285;BME280;31026;43.780;25.948;2023-04-30T07:06:40;100683.97;;;20.15;61.25
45285;BME280;31026;43.780;25.948;2023-04-30T07:09:11;100675.00;;;20.43;60.31
45285;BME280;31026;43.780;25.948;2023-04-30T07:11:39;100687.31;;;20.26;60.99
45285;BME280;31026;43.780;25.948;2023-04-30T07:14:08;100675.91;;;20.15;61.22
45285;BME280;31026;43.780;25.948;2023-04-30T07:16:36;100686.41;;;20.08;61.20
45285;BME280;31026;43.780;25.948;2023-04-30T07:19:05;100682.31;;;19.94;61.49
45285;BME280;31026;43.780;25.948;2023-04-30T07:21:33;100684.75;;;19.88;61.76
45285;BME280;31026;43.780;25.948;2023-04-30T07:24:01;100686.00;;;19.83;61.98
45285;BME280;31026;43.780;25.948;2023-04-30T07:26:32;100681.19;;;19.77;62.32
45285;BME280;31026;43.780;25.948;2023-04-30T07:29:00;100687.97;;;19.81;62.15
45285;BME280;31026;43.780;25.948;2023-04-30T07:31:29;100675.13;;;19.75;62.25
45285;BME280;31026;43.780;25.948;2023-04-30T07:33:57;100671.47;;;19.76;62.35
45285;BME280;31026;43.780;25.948;2023-04-30T07:36:25;100676.81;;;20.05;61.73
45285;BME280;31026;43.780;25.948;2023-04-30T07:38:54;100667.41;;;20.57;60.35
45285;BME280;31026;43.780;25.948;2023-04-30T07:41:23;100671.72;;;20.50;60.27
45285;BME280;31026;43.780;25.948;2023-04-30T07:43:54;100687.56;;;20.33;60.67
45285;BME280;31026;43.780;25.948;2023-04-30T07:46:22;100668.41;;;20.18;61.08
45285;BME280;31026;43.780;25.948;2023-04-30T07:48:50;100674.38;;;20.12;61.36
45285;BME280;31026;43.780;25.948;2023-04-30T07:51:19;100664.22;;;20.06;62.02
45285;BME280;31026;43.780;25.948;2023-04-30T07:53:47;100676.25;;;20.02;62.05
45285;BME280;31026;43.780;25.948;2023-04-30T07:56:17;100676.09;;;20.03;61.78
45285;BME280;31026;43.780;25.948;2023-04-30T07:58:45;100672.13;;;20.08;61.97
45285;BME280;31026;43.780;25.948;2023-04-30T08:01:16;100676.09;;;20.03;62.24
45285;BME280;31026;43.780;25.948;2023-04-30T08:03:45;100678.91;;;20.02;62.46
45285;BME280;31026;43.780;25.948;2023-04-30T08:06:13;100684.69;;;19.97;62.81
45285;BME280;31026;43.780;25.948;2023-04-30T08:08:41;100680.91;;;20.00;62.67
45285;BME280;31026;43.780;25.948;2023-04-30T08:11:10;100689.94;;;19.99;62.64
45285;BME280;31026;43.780;25.948;2023-04-30T08:13:39;100667.06;;;19.95;62.95
45285;BME280;31026;43.780;25.948;2023-04-30T08:16:07;100683.41;;;20.01;63.06
45285;BME280;31026;43.780;25.948;2023-04-30T08:18:38;100683.16;;;20.04;63.11
45285;BME280;31026;43.780;25.948;2023-04-30T08:21:09;100664.94;;;19.98;63.31
45285;BME280;31026;43.780;25.948;2023-04-30T08:23:37;100672.16;;;19.88;63.53
45285;BME280;31026;43.780;25.948;2023-04-30T08:26:05;100686.28;;;19.80;63.51
45285;BME280;31026;43.780;25.948;2023-04-30T08:28:33;100667.66;;;19.79;62.78
45285;BME280;31026;43.780;25.948;2023-04-30T08:31:02;100673.28;;;19.85;62.15
45285;BME280;31026;43.780;25.948;2023-04-30T08:33:30;100671.03;;;19.81;61.72
45285;BME280;31026;43.780;25.948;2023-04-30T08:36:01;100653.53;;;19.77;61.79
45285;BME280;31026;43.780;25.948;2023-04-30T08:38:29;100662.72;;;19.74;59.05
45285;BME280;31026;43.780;25.948;2023-04-30T08:41:01;100656.88;;;19.69;58.71
45285;BME280;31026;43.780;25.948;2023-04-30T08:43:32;100682.63;;;19.72;57.73
45285;BME280;31026;43.780;25.948;2023-04-30T08:46:01;100669.91;;;19.64;58.21
45285;BME280;31026;43.780;25.948;2023-04-30T08:48:29;100657.91;;;19.68;58.56
45285;BME280;31026;43.780;25.948;2023-04-30T08:51:01;100670.88;;;19.63;58.95
45285;BME280;31026;43.780;25.948;2023-04-30T08:53:30;100663.41;;;19.66;59.01
45285;BME280;31026;43.780;25.948;2023-04-30T08:55:58;100660.31;;;19.71;59.36
45285;BME280;31026;43.780;25.948;2023-04-30T08:58:26;100659.72;;;19.77;59.30
45285;BME280;31026;43.780;25.948;2023-04-30T09:00:56;100659.03;;;19.85;59.24
45285;BME280;31026;43.780;25.948;2023-04-30T09:03:24;100654.66;;;19.84;58.04
45285;BME280;31026;43.780;25.948;2023-04-30T09:05:53;100663.66;;;19.93;56.93
45285;BME280;31026;43.780;25.948;2023-04-30T09:11:15;100644.19;;;19.81;58.13
45285;BME280;31026;43.780;25.948;2023-04-30T09:13:47;100652.69;;;19.86;57.96
45285;BME280;31026;43.780;25.948;2023-04-30T09:16:16;100651.78;;;19.95;58.37
45285;BME280;31026;43.780;25.948;2023-04-30T09:18:45;100638.78;;;20.10;59.04
45285;BME280;31026;43.780;25.948;2023-04-30T09:21:13;100640.75;;;20.08;58.77
45285;BME280;31026;43.780;25.948;2023-04-30T09:23:53;100630.72;;;20.10;59.24
45285;BME280;31026;43.780;25.948;2023-04-30T09:26:29;100643.84;;;20.13;59.00
45285;BME280;31026;43.780;25.948;2023-04-30T09:28:58;100636.19;;;20.18;59.19
45285;BME280;31026;43.780;25.948;2023-04-30T09:31:31;100636.16;;;20.28;59.17
45285;BME280;31026;43.780;25.948;2023-04-30T09:34:00;100620.19;;;20.26;59.54
45285;BME280;31026;43.780;25.948;2023-04-30T09:36:28;100624.63;;;20.18;59.97
45285;BME280;31026;43.780;25.948;2023-04-30T09:39:03;100615.00;;;20.15;60.04
45285;BME280;31026;43.780;25.948;2023-04-30T09:41:35;100621.06;;;20.17;60.51
45285;BME280;31026;43.780;25.948;2023-04-30T09:44:04;100614.78;;;19.99;59.52
45285;BME280;31026;43.780;25.948;2023-04-30T09:46:32;100612.13;;;19.89;55.16
45285;BME280;31026;43.780;25.948;2023-04-30T09:49:03;100609.03;;;19.94;56.26
45285;BME280;31026;43.780;25.948;2023-04-30T09:51:31;100608.84;;;19.95;55.97
45285;BME280;31026;43.780;25.948;2023-04-30T09:54:00;100619.44;;;19.97;56.45
45285;BME280;31026;43.780;25.948;2023-04-30T09:56:29;100614.22;;;19.95;54.94
45285;BME280;31026;43.780;25.948;2023-04-30T09:59:04;100620.47;;;19.86;54.36
45285;BME280;31026;43.780;25.948;2023-04-30T10:01:35;100605.47;;;19.83;54.73
45285;BME280;31026;43.780;25.948;2023-04-30T10:04:04;100600.28;;;19.92;53.67
45285;BME280;31026;43.780;25.948;2023-04-30T10:06:32;100607.06;;;19.86;55.11
45285;BME280;31026;43.780;25.948;2023-04-30T10:09:00;100611.44;;;19.77;54.26
45285;BME280;31026;43.780;25.948;2023-04-30T10:11:29;100614.69;;;19.81;53.83
45285;BME280;31026;43.780;25.948;2023-04-30T10:13:59;100619.47;;;19.77;53.86
45285;BME280;31026;43.780;25.948;2023-04-30T10:16:32;100592.66;;;19.77;54.69
45285;BME280;31026;43.780;25.948;2023-04-30T10:19:02;100615.25;;;19.75;54.61
45285;BME280;31026;43.780;25.948;2023-04-30T10:21:34;100607.22;;;19.75;53.65
45285;BME280;31026;43.780;25.948;2023-04-30T10:24:07;100599.84;;;19.86;53.57
45285;BME280;31026;43.780;25.948;2023-04-30T10:26:36;100598.41;;;19.92;52.13
45285;BME280;31026;43.780;25.948;2023-04-30T10:29:05;100594.75;;;19.83;52.36
45285;BME280;31026;43.780;25.948;2023-04-30T10:31:36;100596.03;;;19.79;51.90
45285;BME280;31026;43.780;25.948;2023-04-30T10:34:10;100602.38;;;19.88;52.75
45285;BME280;31026;43.780;25.948;2023-04-30T10:36:41;100594.22;;;19.70;53.08
45285;BME280;31026;43.780;25.948;2023-04-30T10:39:12;100588.13;;;19.68;52.67
45285;BME280;31026;43.780;25.948;2023-04-30T10:41:43;100575.59;;;19.59;53.56
45285;BME280;31026;43.780;25.948;2023-04-30T10:44:13;100586.63;;;19.56;52.14
45285;BME280;31026;43.780;25.948;2023-04-30T10:46:44;100591.81;;;19.57;50.46
45285;BME280;31026;43.780;25.948;2023-04-30T10:49:13;100572.50;;;19.54;48.16
45285;BME280;31026;43.780;25.948;2023-04-30T10:51:48;100582.50;;;19.52;48.72
45285;BME280;31026;43.780;25.948;2023-04-30T10:54:21;100604.97;;;19.51;48.72
45285;BME280;31026;43.780;25.948;2023-04-30T10:56:52;100581.78;;;19.50;49.10
45285;BME280;31026;43.780;25.948;2023-04-30T10:59:20;100583.63;;;19.49;46.87
45285;BME280;31026;43.780;25.948;2023-04-30T11:01:58;100567.56;;;19.39;50.84
45285;BME280;31026;43.780;25.948;2023-04-30T11:04:27;100592.41;;;19.41;49.90
45285;BME280;31026;43.780;25.948;2023-04-30T11:09:39;100581.22;;;19.65;49.27
45285;BME280;31026;43.780;25.948;2023-04-30T11:12:11;100581.38;;;19.64;50.32
45285;BME280;31026;43.780;25.948;2023-04-30T11:14:40;100588.28;;;19.86;50.11
45285;BME280;31026;43.780;25.948;2023-04-30T11:17:12;100580.63;;;19.81;50.27
45285;BME280;31026;43.780;25.948;2023-04-30T11:19:49;100583.47;;;19.90;50.48
45285;BME280;31026;43.780;25.948;2023-04-30T11:22:18;100583.59;;;19.88;50.39
45285;BME280;31026;43.780;25.948;2023-04-30T11:24:50;100577.69;;;19.65;51.44
45285;BME280;31026;43.780;25.948;2023-04-30T11:27:19;100572.63;;;19.62;51.95
45285;BME280;31026;43.780;25.948;2023-04-30T11:29:48;100571.19;;;19.67;52.23
45285;BME280;31026;43.780;25.948;2023-04-30T11:32:20;100578.69;;;19.64;52.55
45285;BME280;31026;43.780;25.948;2023-04-30T11:34:49;100570.19;;;19.68;52.67
45285;BME280;31026;43.780;25.948;2023-04-30T11:37:18;100577.56;;;19.76;52.30
45285;BME280;31026;43.780;25.948;2023-04-30T11:39:47;100563.19;;;19.58;52.09
45285;BME280;31026;43.780;25.948;2023-04-30T11:42:17;100565.16;;;19.56;52.53
45285;BME280;31026;43.780;25.948;2023-04-30T11:44:46;100564.84;;;19.59;52.63
45285;BME280;31026;43.780;25.948;2023-04-30T11:47:14;100554.97;;;19.59;53.28
45285;BME280;31026;43.780;25.948;2023-04-30T11:49:45;100552.59;;;19.56;53.48
45285;BME280;31026;43.780;25.948;2023-04-30T11:52:13;100559.47;;;19.68;53.81
45285;BME280;31026;43.780;25.948;2023-04-30T11:54:42;100573.59;;;19.80;53.77
45285;BME280;31026;43.780;25.948;2023-04-30T11:57:14;100533.38;;;19.61;54.46
45285;BME280;31026;43.780;25.948;2023-04-30T11:59:42;100547.91;;;19.78;54.13
45285;BME280;31026;43.780;25.948;2023-04-30T12:02:13;100545.06;;;19.79;53.66
45285;BME280;31026;43.780;25.948;2023-04-30T12:04:45;100555.63;;;19.91;53.26
45285;BME280;31026;43.780;25.948;2023-04-30T12:07:13;100542.13;;;20.10;52.73
45285;BME280;31026;43.780;25.948;2023-04-30T12:09:51;100529.78;;;19.90;53.68
45285;BME280;31026;43.780;25.948;2023-04-30T12:12:26;100533.09;;;20.01;53.44
45285;BME280;31026;43.780;25.948;2023-04-30T12:14:55;100529.53;;;19.73;53.90
45285;BME280;31026;43.780;25.948;2023-04-30T12:17:29;100527.53;;;19.85;54.28
45285;BME280;31026;43.780;25.948;2023-04-30T12:20:01;100532.94;;;19.75;54.15
45285;BME280;31026;43.780;25.948;2023-04-30T12:22:29;100526.97;;;19.81;53.91
45285;BME280;31026;43.780;25.948;2023-04-30T12:24:58;100516.06;;;19.93;53.46
45285;BME280;31026;43.780;25.948;2023-04-30T12:27:26;100519.06;;;19.90;53.89
45285;BME280;31026;43.780;25.948;2023-04-30T12:29:56;100539.91;;;20.05;53.56
45285;BME280;31026;43.780;25.948;2023-04-30T12:32:24;100517.31;;;19.98;53.16
45285;BME280;31026;43.780;25.948;2023-04-30T12:34:56;100514.53;;;19.90;53.44
45285;BME280;31026;43.780;25.948;2023-04-30T12:37:28;100521.59;;;19.81;53.70
45285;BME280;31026;43.780;25.948;2023-04-30T12:39:56;100506.44;;;19.53;54.03
45285;BME280;31026;43.780;25.948;2023-04-30T12:42:25;100519.72;;;19.44;54.34
45285;BME280;31026;43.780;25.948;2023-04-30T12:44:58;100506.19;;;19.36;54.56
45285;BME280;31026;43.780;25.948;2023-04-30T12:47:27;100501.28;;;19.69;53.78
45285;BME280;31026;43.780;25.948;2023-04-30T12:49:56;100498.38;;;20.00;53.14
45285;BME280;31026;43.780;25.948;2023-04-30T12:52:24;100490.88;;;20.03;53.30
45285;BME280;31026;43.780;25.948;2023-04-30T12:54:55;100493.50;;;20.13;52.84
45285;BME280;31026;43.780;25.948;2023-04-30T12:57:23;100495.59;;;20.19;52.94